Time;durP1;ratioP1;P1;durP2;ratioP2;P2;SDS_P1;SDS_P2;PMS_P1;PMS_P2;Temp;Humidity;BMP_temperature;BMP_pressure;BME280_temperature;BME280_humidity;BME280_pressure;Samples;Min_cycle;Max_cycle;Signal;HPM_P1;HPM_P2
2023/05/11 00:00:09;;;;;;;1.70;0.50;;;12.80;99.90;;;;;;4852858;29;20030;-69
2023/05/11 05:01:24;;;;;;;2.60;0.70;;;12.50;99.90;;;;;;5860239;23;20024;31
2023/05/11 05:03:50;;;;;;;1.55;0.63;;;12.50;99.90;;;;;;4883073;29;19920;-70
2023/05/11 05:06:16;;;;;;;2.53;1.10;;;12.60;99.90;;;;;;4869255;29;20045;-69
2023/05/11 05:08:42;;;;;;;1.40;0.57;;;12.50;99.90;;;;;;4870024;29;20105;-70
2023/05/11 05:11:09;;;;;;;2.90;0.70;;;12.60;99.90;;;;;;4870983;29;20037;-69
2023/05/11 05:13:35;;;;;;;2.00;0.75;;;12.60;99.90;;;;;;4881925;29;20307;-70
2023/05/11 05:16:01;;;;;;;3.25;0.70;;;12.60;99.90;;;;;;4864399;29;20101;-69
2023/05/11 05:18:26;;;;;;;2.17;0.50;;;12.70;99.90;;;;;;4884765;29;20081;-68
2023/05/11 05:20:53;;;;;;;1.50;0.52;;;12.70;99.90;;;;;;4882076;29;20037;-70
2023/05/11 05:23:45;;;;;;;1.90;0.60;;;12.70;99.90;;;;;;4870758;29;20044;-69
2023/05/11 05:26:15;;;;;;;1.90;0.70;;;12.80;99.90;;;;;;4881709;29;20064;-69
2023/05/11 05:28:41;;;;;;;2.17;0.70;;;12.80;99.90;;;;;;4860324;29;20037;-69
2023/05/11 05:31:08;;;;;;;1.70;0.65;;;12.80;99.90;;;;;;4884688;29;20044;-69
2023/05/11 05:33:33;;;;;;;2.10;0.60;;;12.80;99.90;;;;;;4881731;29;20034;-69
2023/05/11 05:35:59;;;;;;;2.03;0.80;;;12.80;99.90;;;;;;4865084;29;20052;-69
2023/05/11 05:38:25;;;;;;;4.20;0.70;;;12.80;99.90;;;;;;4881273;29;20033;-69
2023/05/11 05:40:51;;;;;;;3.05;0.70;;;12.90;99.90;;;;;;4883182;29;20029;-70
2023/05/11 05:43:17;;;;;;;1.48;0.75;;;12.90;99.90;;;;;;4881589;29;20365;-70
2023/05/11 05:45:43;;;;;;;2.10;1.00;;;13.00;99.90;;;;;;4882018;29;20041;-71
2023/05/11 05:48:09;;;;;;;1.48;0.50;;;12.90;99.90;;;;;;4882096;29;20109;-69
2023/05/11 05:50:35;;;;;;;1.67;0.70;;;13.00;99.90;;;;;;4862281;29;20029;-69
2023/05/11 05:53:01;;;;;;;1.40;0.60;;;13.10;99.90;;;;;;4881496;29;20108;-69
2023/05/11 05:55:28;;;;;;;1.90;0.68;;;13.20;99.90;;;;;;4861908;29;20326;-69
2023/05/11 05:57:55;;;;;;;1.20;0.45;;;13.10;99.90;;;;;;4881760;29;20030;-69
2023/05/11 06:00:21;;;;;;;3.55;0.70;;;13.10;99.90;;;;;;4861113;29;20367;-69
2023/05/11 06:02:55;;;;;;;1.33;0.60;;;13.10;99.90;;;;;;4888434;29;20052;-69
2023/05/11 06:05:24;;;;;;;4.20;1.15;;;13.00;99.90;;;;;;4873251;29;20021;-69
2023/05/11 06:07:50;;;;;;;2.15;0.88;;;13.10;99.90;;;;;;4869019;29;20074;-69
2023/05/11 06:10:17;;;;;;;2.00;0.80;;;13.20;99.90;;;;;;4869780;29;20038;-69
2023/05/11 06:12:45;;;;;;;1.95;0.55;;;13.30;99.90;;;;;;4883595;29;20035;-69
2023/05/11 06:15:11;;;;;;;2.08;0.50;;;13.30;99.90;;;;;;4884607;29;20082;-69
2023/05/11 06:17:39;;;;;;;3.70;0.80;;;13.40;99.90;;;;;;4884057;29;20226;-71
2023/05/11 06:20:06;;;;;;;2.90;0.80;;;13.40;99.90;;;;;;4879814;29;20105;-71
2023/05/11 06:22:32;;;;;;;2.95;0.80;;;13.40;99.90;;;;;;4883983;29;20030;-69
2023/05/11 06:24:57;;;;;;;1.60;0.60;;;13.50;99.90;;;;;;4884286;29;20040;-69
2023/05/11 06:27:24;;;;;;;1.65;0.60;;;13.60;99.90;;;;;;4884057;29;20073;-70
2023/05/11 06:29:54;;;;;;;2.92;0.77;;;13.60;99.90;;;;;;4884407;29;20045;-69
2023/05/11 06:32:20;;;;;;;4.72;0.77;;;13.80;99.90;;;;;;4883114;29;20025;-70
2023/05/11 06:34:46;;;;;;;2.03;0.68;;;13.90;99.90;;;;;;4862066;29;20030;-69
2023/05/11 06:37:19;;;;;;;3.60;0.98;;;13.90;99.90;;;;;;4884170;29;20029;-69
2023/05/11 06:39:47;;;;;;;3.58;0.85;;;13.90;99.90;;;;;;4878796;29;20199;-70
2023/05/11 06:42:13;;;;;;;1.98;0.60;;;13.90;99.90;;;;;;4881075;29;20032;-69
2023/05/11 06:44:40;;;;;;;1.92;0.80;;;13.80;99.90;;;;;;4880686;29;20026;-71
2023/05/11 06:47:07;;;;;;;1.55;0.80;;;13.80;99.90;;;;;;4876798;29;20069;-71
2023/05/11 06:49:33;;;;;;;2.38;0.65;;;13.80;99.90;;;;;;4873201;29;20037;-71
2023/05/11 06:51:59;;;;;;;2.10;0.57;;;13.90;99.90;;;;;;4886125;29;20048;-70
2023/05/11 06:54:25;;;;;;;1.63;0.60;;;13.90;99.90;;;;;;4887539;29;20298;-70
2023/05/11 06:56:51;;;;;;;1.63;0.70;;;13.90;99.90;;;;;;4863531;29;20048;-70
2023/05/11 06:59:19;;;;;;;2.30;0.52;;;13.80;99.90;;;;;;4869530;29;20025;-70
2023/05/11 07:01:45;;;;;;;1.83;0.70;;;13.90;99.90;;;;;;4872800;29;20061;-70
2023/05/11 07:04:11;;;;;;;2.20;0.82;;;14.10;99.90;;;;;;4873155;29;20038;-70
2023/05/11 07:06:36;;;;;;;2.03;0.68;;;14.10;99.90;;;;;;4872621;29;20356;-71
2023/05/11 07:09:02;;;;;;;1.63;0.90;;;14.00;99.90;;;;;;4872852;29;20041;-71
2023/05/11 07:11:29;;;;;;;4.95;1.00;;;14.00;99.90;;;;;;4869582;29;20223;-77
2023/05/11 07:13:55;;;;;;;2.95;0.80;;;14.00;99.90;;;;;;4873383;29;20032;-70
2023/05/11 07:16:22;;;;;;;2.20;0.73;;;14.10;99.90;;;;;;4872544;29;20223;-71
2023/05/11 07:18:47;;;;;;;2.47;0.98;;;14.00;99.90;;;;;;4873327;29;20033;-69
2023/05/11 07:21:13;;;;;;;2.00;0.93;;;14.00;99.90;;;;;;4873099;29;20106;-69
2023/05/11 07:23:39;;;;;;;2.22;0.95;;;13.90;99.90;;;;;;4872704;29;20077;-69
2023/05/11 07:26:07;;;;;;;4.03;1.20;;;14.00;99.90;;;;;;4872926;29;20044;-69
2023/05/11 07:28:34;;;;;;;;;;;14.00;99.90;;;;;;4871173;29;20037;-69
2023/05/11 07:31:00;;;;;;;2.40;0.70;;;14.20;99.90;;;;;;4872997;29;19908;-69
2023/05/11 07:33:26;;;;;;;2.47;1.00;;;14.30;99.90;;;;;;4872259;29;20044;-71
2023/05/11 07:35:51;;;;;;;2.72;0.75;;;14.30;99.90;;;;;;4872717;29;20032;-79
2023/05/11 07:38:17;;;;;;;2.10;0.80;;;14.40;99.90;;;;;;4873000;29;20108;-72
2023/05/11 07:40:43;;;;;;;3.17;0.80;;;14.40;99.90;;;;;;4872386;29;20041;-72
2023/05/11 07:43:08;;;;;;;3.58;1.40;;;14.30;99.90;;;;;;4872714;29;20059;-71
2023/05/11 07:45:34;;;;;;;2.90;0.77;;;14.30;99.90;;;;;;4872033;29;20037;-71
2023/05/11 07:48:00;;;;;;;2.40;0.80;;;14.40;99.90;;;;;;4872429;29;20037;-71
2023/05/11 07:50:25;;;;;;;3.72;0.80;;;14.50;99.90;;;;;;4872024;29;20041;-71
2023/05/11 07:52:51;;;;;;;2.08;0.80;;;14.60;99.90;;;;;;4872188;29;20030;-71
2023/05/11 07:55:18;;;;;;;2.55;1.13;;;14.70;99.90;;;;;;4872358;29;20207;-71
2023/05/11 07:57:44;;;;;;;2.28;0.93;;;14.70;99.90;;;;;;4872213;29;20049;-71
2023/05/11 08:00:11;;;;;;;2.88;0.80;;;14.80;99.90;;;;;;4872346;29;20074;-71
2023/05/11 08:02:39;;;;;;;3.85;0.90;;;14.80;99.90;;;;;;4871478;29;20069;-70
2023/05/11 08:05:05;;;;;;;3.35;1.20;;;14.80;99.90;;;;;;4872037;29;20042;-71
2023/05/11 08:07:31;;;;;;;3.00;1.20;;;14.90;99.90;;;;;;4871720;29;20033;-70
2023/05/11 08:09:56;;;;;;;3.58;1.13;;;15.00;99.90;;;;;;4871515;29;20231;-69
2023/05/11 08:12:22;;;;;;;3.33;1.10;;;15.00;99.90;;;;;;4868075;29;20034;-70
2023/05/11 08:14:48;;;;;;;3.08;0.98;;;15.10;99.90;;;;;;4871669;29;20238;-69
2023/05/11 08:17:14;;;;;;;2.50;0.80;;;15.00;99.90;;;;;;4871897;29;20037;-69
2023/05/11 08:19:39;;;;;;;5.13;0.90;;;15.00;99.90;;;;;;4871296;29;20041;-69
2023/05/11 08:22:05;;;;;;;4.28;1.13;;;15.00;99.90;;;;;;4871345;29;20058;-69
2023/05/11 08:24:31;;;;;;;2.78;1.00;;;14.90;99.90;;;;;;4868686;29;20077;-69
2023/05/11 08:26:56;;;;;;;2.30;1.10;;;14.80;99.90;;;;;;4871512;29;20218;-69
2023/05/11 08:29:26;;;;;;;3.25;1.10;;;15.00;99.90;;;;;;4871121;29;20049;-69
2023/05/11 08:31:53;;;;;;;2.38;0.98;;;15.00;99.90;;;;;;4872211;29;20050;-69
2023/05/11 08:34:19;;;;;;;3.95;1.08;;;15.00;99.90;;;;;;4871726;29;20342;-69
2023/05/11 08:36:44;;;;;;;3.03;1.05;;;15.20;99.90;;;;;;4885669;29;20037;-69
2023/05/11 08:39:10;;;;;;;3.00;1.20;;;15.10;99.90;;;;;;4871505;29;20041;-69
2023/05/11 08:41:36;;;;;;;4.05;1.13;;;15.10;99.90;;;;;;4871628;29;20021;-69
2023/05/11 08:44:02;;;;;;;2.90;1.20;;;15.10;99.90;;;;;;4871337;29;20219;-70
2023/05/11 08:46:29;;;;;;;3.67;1.10;;;15.10;99.90;;;;;;4870456;29;20045;-70
2023/05/11 08:48:57;;;;;;;3.03;1.42;;;15.30;99.90;;;;;;4871141;29;20222;-70
2023/05/11 08:51:23;;;;;;;3.65;1.40;;;15.20;99.90;;;;;;4870854;29;20060;-70
2023/05/11 08:53:49;;;;;;;2.55;1.40;;;15.30;99.90;;;;;;4871220;29;20206;-70
2023/05/11 08:56:16;;;;;;;3.30;1.45;;;15.20;99.90;;;;;;4871066;29;20044;-70
2023/05/11 08:58:42;;;;;;;6.75;1.50;;;15.40;99.90;;;;;;4870912;29;20342;-70
2023/05/11 09:01:11;;;;;;;4.05;1.40;;;15.40;99.90;;;;;;4871047;29;20061;-69
2023/05/11 09:03:39;;;;;;;2.38;1.20;;;15.50;99.90;;;;;;4870718;29;20052;-69
2023/05/11 09:06:07;;;;;;;4.03;1.75;;;15.50;99.90;;;;;;4871004;29;20044;-70
2023/05/11 09:08:37;;;;;;;3.13;1.40;;;15.50;99.90;;;;;;4870679;29;20073;-71
2023/05/11 09:11:03;;;;;;;2.53;1.40;;;15.60;99.90;;;;;;4866678;29;20100;-70
2023/05/11 09:13:30;;;;;;;5.53;1.65;;;15.50;99.90;;;;;;4870485;29;20026;-71
2023/05/11 09:15:57;;;;;;;3.83;1.20;;;15.50;99.90;;;;;;4870839;29;20033;-71
2023/05/11 09:18:23;;;;;;;4.40;1.50;;;15.70;99.90;;;;;;4871137;29;20044;-71
2023/05/11 09:20:51;;;;;;;4.38;1.60;;;15.90;99.90;;;;;;4871066;29;20033;-72
2023/05/11 09:23:17;;;;;;;5.28;1.75;;;15.90;99.90;;;;;;4870741;29;20049;-73
2023/05/11 09:25:43;;;;;;;4.75;1.70;;;16.00;99.90;;;;;;4870334;29;20100;-71
2023/05/11 09:28:12;;;;;;;3.33;1.35;;;16.00;99.90;;;;;;4870975;29;20037;-70
2023/05/11 09:30:38;;;;;;;4.03;1.70;;;15.90;99.90;;;;;;4870514;29;20037;-70
2023/05/11 09:33:03;;;;;;;3.33;1.70;;;15.80;99.90;;;;;;4870397;29;20041;-71
2023/05/11 09:35:31;;;;;;;2.10;1.35;;;15.80;99.90;;;;;;4870016;29;20034;-70
2023/05/11 09:37:57;;;;;;;1.92;1.20;;;15.80;99.90;;;;;;4870385;29;20115;-71
2023/05/11 09:40:24;;;;;;;2.25;1.08;;;15.90;99.90;;;;;;4870945;29;20044;-71
2023/05/11 09:42:50;;;;;;;2.20;1.00;;;15.80;99.90;;;;;;4870666;29;20029;-71
2023/05/11 09:45:37;;;;;;;3.33;1.42;;;15.90;99.90;;;;;;4884993;29;20025;-71
2023/05/11 09:48:06;;;;;;;2.17;1.30;;;16.10;99.90;;;;;;4870300;29;20048;-70
2023/05/11 09:50:34;;;;;;;2.80;1.20;;;16.20;99.90;;;;;;4869900;29;20342;-71
2023/05/11 09:53:01;;;;;;;3.35;1.20;;;16.20;99.90;;;;;;4870400;29;20061;-70
2023/05/11 09:55:26;;;;;;;3.25;1.00;;;16.30;99.90;;;;;;4870368;29;20029;-70
2023/05/11 09:57:54;;;;;;;1.98;1.00;;;16.30;99.90;;;;;;4870015;29;20210;-70
2023/05/11 10:00:20;;;;;;;2.38;0.68;;;16.40;99.90;;;;;;4870521;29;20029;-70
2023/05/11 10:03:05;;;;;;;4.00;1.08;;;16.50;99.90;;;;;;4884105;29;20049;-71
2023/05/11 10:05:35;;;;;;;3.10;1.20;;;16.50;99.90;;;;;;4869785;29;20092;-71
2023/05/11 10:08:05;;;;;;;3.00;1.20;;;16.30;99.90;;;;;;4870350;29;20034;-70
2023/05/11 10:10:33;;;;;;;2.92;1.10;;;16.50;99.90;;;;;;4866867;29;20048;-71
2023/05/11 10:13:01;;;;;;;3.22;1.50;;;16.40;99.90;;;;;;4868920;29;20064;-71
2023/05/11 10:15:29;;;;;;;2.72;1.02;;;16.50;99.90;;;;;;4869279;29;20060;-71
2023/05/11 10:17:56;;;;;;;2.47;1.10;;;16.50;99.90;;;;;;4870229;29;20070;-71
2023/05/11 10:20:23;;;;;;;3.90;1.30;;;16.60;99.90;;;;;;4870450;29;20045;-70
2023/05/11 10:22:54;;;;;;;2.85;1.40;;;16.60;99.90;;;;;;4873099;29;20180;-70
2023/05/11 10:25:24;;;;;;;2.17;1.15;;;16.60;99.90;;;;;;4874300;29;20038;-70
2023/05/11 10:27:50;;;;;;;2.55;1.52;;;16.40;99.90;;;;;;4873456;29;20044;-70
2023/05/11 10:30:16;;;;;;;2.55;1.40;;;16.50;99.90;;;;;;4873848;29;20189;-70
2023/05/11 10:32:45;;;;;;;2.78;1.60;;;16.50;99.90;;;;;;4873534;29;20037;-72
2023/05/11 10:35:11;;;;;;;2.45;1.40;;;16.50;99.90;;;;;;4873914;29;20089;-72
2023/05/11 10:37:38;;;;;;;2.95;1.30;;;16.60;99.90;;;;;;4860591;29;20038;-70
2023/05/11 10:40:06;;;;;;;2.80;1.25;;;16.40;99.90;;;;;;4874504;29;20063;-72
2023/05/11 10:42:41;;;;;;;2.90;1.13;;;16.40;99.90;;;;;;4873647;29;20033;-73
2023/05/11 10:45:51;;;;;;;2.30;1.17;;;16.50;99.90;;;;;;4873994;29;20045;-75
2023/05/11 10:48:43;;;;;;;2.42;0.80;;;16.40;99.90;;;;;;4870718;29;20222;-71
2023/05/11 10:51:31;;;;;;;2.13;0.80;;;16.20;99.90;;;;;;4873517;29;20100;-72
2023/05/11 10:54:33;;;;;;;3.65;1.20;;;16.30;99.90;;;;;;4873482;29;20219;-71
2023/05/11 10:57:07;;;;;;;4.45;1.40;;;16.40;99.90;;;;;;4873748;29;20068;-72
2023/05/11 11:00:07;;;;;;;3.55;1.65;;;16.40;99.90;;;;;;4873127;29;20100;-71
2023/05/11 11:02:33;;;;;;;3.53;2.08;;;16.30;99.90;;;;;;4872548;29;20053;-70
2023/05/11 11:05:04;;;;;;;3.20;1.80;;;16.10;99.90;;;;;;4873493;29;20085;-71
2023/05/11 11:07:30;;;;;;;3.05;1.70;;;16.10;99.90;;;;;;4872931;29;20045;-70
2023/05/11 11:09:59;;;;;;;2.83;1.50;;;16.20;99.90;;;;;;4869955;29;20032;-71
2023/05/11 11:12:26;;;;;;;4.13;1.60;;;16.20;99.90;;;;;;4860620;29;20329;-69
2023/05/11 11:15:00;;;;;;;3.47;1.47;;;16.20;99.90;;;;;;4865791;29;20026;-69
2023/05/11 11:17:30;;;;;;;2.22;1.30;;;16.30;99.90;;;;;;4873283;29;20163;-69
2023/05/11 11:19:59;;;;;;;4.55;1.17;;;16.20;99.90;;;;;;4861099;29;20389;-70
2023/05/11 11:22:37;;;;;;;2.35;1.10;;;16.50;99.90;;;;;;4873336;29;20065;-70
2023/05/11 11:25:26;;;;;;;1.52;0.77;;;16.80;99.90;;;;;;4873036;29;20033;-69
2023/05/11 11:27:54;;;;;;;1.58;0.90;;;17.10;99.90;;;;;;4874472;29;20049;-70
2023/05/11 11:30:29;;;;;;;2.60;1.10;;;17.10;99.90;;;;;;4873137;29;20029;-69
2023/05/11 11:33:15;;;;;;;3.00;1.10;;;17.10;99.90;;;;;;4872436;29;20092;-69
2023/05/11 11:35:41;;;;;;;3.03;1.13;;;17.20;99.90;;;;;;4872283;29;20041;-71
2023/05/11 11:38:08;;;;;;;3.25;0.73;;;17.30;99.90;;;;;;4871329;29;20037;-70
2023/05/11 11:40:35;;;;;;;2.72;0.75;;;17.30;99.90;;;;;;4860613;29;20034;-71
2023/05/11 11:43:14;;;;;;;1.50;0.68;;;17.30;99.90;;;;;;4854044;29;20223;-70
2023/05/11 11:45:48;;;;;;;;;;;17.30;99.90;;;;;;4867074;29;20040;-71
2023/05/11 11:48:19;;;;;;;1.30;0.50;;;17.30;99.50;;;;;;4872885;29;19916;-71
2023/05/11 11:50:46;;;;;;;2.22;0.60;;;17.50;99.80;;;;;;4872146;29;20037;-71
2023/05/11 11:53:42;;;;;;;1.80;0.60;;;17.70;99.70;;;;;;4872485;29;20093;-71
2023/05/11 11:56:14;;;;;;;3.38;0.70;;;18.10;99.00;;;;;;4864103;29;20053;-71
2023/05/11 11:58:45;;;;;;;2.20;1.08;;;18.40;98.50;;;;;;4871767;29;20319;-70
2023/05/11 12:01:12;;;;;;;2.78;0.77;;;18.50;98.50;;;;;;4872244;29;20051;-71
2023/05/11 12:03:38;;;;;;;2.25;0.90;;;18.60;99.30;;;;;;4871523;29;20054;-70
2023/05/11 12:06:06;;;;;;;2.08;0.88;;;18.80;98.60;;;;;;4872200;29;20331;-69
2023/05/11 12:08:32;;;;;;;3.03;1.02;;;18.70;98.30;;;;;;4871926;29;20034;-70
2023/05/11 12:11:00;;;;;;;1.52;0.80;;;18.70;98.30;;;;;;4870889;29;20098;-70
2023/05/11 12:13:26;;;;;;;3.22;0.82;;;18.60;97.80;;;;;;4872110;29;20025;-71
2023/05/11 12:16:15;;;;;;;4.82;1.10;;;18.50;98.00;;;;;;4871814;29;20513;-70
2023/05/11 12:18:49;;;;;;;3.25;0.90;;;18.40;98.00;;;;;;4870108;29;20033;-71
2023/05/11 12:21:23;;;;;;;2.50;0.85;;;18.20;98.60;;;;;;4872174;29;20090;-71
2023/05/11 12:23:56;;;;;;;1.95;0.63;;;17.90;97.70;;;;;;4871687;29;20323;-71
2023/05/11 12:26:24;;;;;;;6.15;1.10;;;17.80;97.60;;;;;;4871579;29;20041;-70
2023/05/11 12:28:51;;;;;;;2.63;0.65;;;17.90;97.70;;;;;;4871267;29;20025;-70
2023/05/11 12:31:17;;;;;;;1.90;0.77;;;18.30;97.50;;;;;;4854994;29;20026;-71
2023/05/11 12:33:48;;;;;;;1.67;0.45;;;18.30;96.90;;;;;;4863862;29;20037;-70
2023/05/11 12:36:15;;;;;;;1.73;0.50;;;18.40;96.50;;;;;;4871882;29;20035;-70
2023/05/11 12:38:48;;;;;;;2.42;0.43;;;18.20;96.40;;;;;;4869668;29;20161;-70
2023/05/11 12:41:21;;;;;;;1.10;0.50;;;18.10;96.10;;;;;;4871745;29;20033;-70
2023/05/11 12:43:51;;;;;;;1.65;0.60;;;18.00;96.40;;;;;;4871027;29;20286;-70
2023/05/11 12:46:17;;;;;;;2.65;0.52;;;18.00;96.60;;;;;;4870817;29;20029;-71
2023/05/11 12:48:47;;;;;;;1.40;0.70;;;18.40;97.00;;;;;;4885561;29;20245;-79
2023/05/11 12:51:53;;;;;;;1.77;0.60;;;18.90;96.00;;;;;;4886184;29;20038;-80
2023/05/11 12:54:36;;;;;;;2.08;0.70;;;18.90;96.30;;;;;;4867851;29;20033;-70
2023/05/11 12:57:02;;;;;;;3.30;0.90;;;19.00;96.50;;;;;;4871600;29;20105;-72
2023/05/11 12:59:36;;;;;;;1.83;0.60;;;19.10;95.80;;;;;;4871242;29;20025;-71
2023/05/11 13:02:20;;;;;;;2.78;0.57;;;19.10;94.60;;;;;;4871249;29;20044;-71
2023/05/11 13:04:47;;;;;;;2.03;0.80;;;18.70;95.40;;;;;;4870683;29;20080;-71
2023/05/11 13:07:22;;;;;;;2.55;0.60;;;18.80;96.50;;;;;;4860428;29;20061;-71
2023/05/11 13:09:56;;;;;;;2.03;0.70;;;18.90;95.90;;;;;;4859161;29;20077;-72
2023/05/11 13:12:23;;;;;;;1.92;0.73;;;18.90;94.70;;;;;;4867609;29;20042;-73
2023/05/11 13:15:03;;;;;;;1.98;0.47;;;18.90;95.00;;;;;;4870698;29;20025;-70
2023/05/11 13:17:30;;;;;;;2.47;0.60;;;18.90;93.50;;;;;;4871061;29;20345;-71
2023/05/11 13:19:56;;;;;;;2.10;0.70;;;19.10;94.00;;;;;;4885100;29;20104;-70
2023/05/11 13:22:22;;;;;;;2.92;0.50;;;19.00;93.90;;;;;;4870798;29;20096;-70
2023/05/11 13:24:49;;;;;;;1.33;0.40;;;19.00;94.90;;;;;;4870492;29;20029;-71
2023/05/11 13:27:15;;;;;;;2.58;0.70;;;19.20;93.80;;;;;;4870904;29;20223;-71
2023/05/11 13:29:41;;;;;;;1.10;0.50;;;19.50;93.60;;;;;;4870405;29;20041;-70
2023/05/11 13:32:07;;;;;;;2.80;0.70;;;19.60;92.80;;;;;;4870598;29;20207;-70
2023/05/11 13:34:32;;;;;;;2.40;0.50;;;19.60;92.20;;;;;;4870640;29;20096;-69
2023/05/11 13:36:58;;;;;;;0.57;0.20;;;19.90;92.20;;;;;;4870305;29;20212;-69
2023/05/11 13:39:24;;;;;;;1.20;0.30;;;20.10;90.90;;;;;;4885064;29;20041;-69
2023/05/11 13:41:50;;;;;;;0.73;0.20;;;20.00;90.20;;;;;;4870439;29;20237;-69
2023/05/11 13:44:15;;;;;;;1.38;0.40;;;20.10;90.30;;;;;;4870832;29;20032;-70
2023/05/11 13:46:41;;;;;;;1.60;0.32;;;20.30;89.70;;;;;;4868556;29;20045;-69
2023/05/11 13:49:07;;;;;;;1.38;0.30;;;20.60;90.20;;;;;;4861436;29;20192;-69
2023/05/11 13:51:33;;;;;;;2.28;0.30;;;20.90;86.30;;;;;;4852264;29;20037;-70
2023/05/11 13:54:01;;;;;;;0.57;0.20;;;20.90;88.20;;;;;;4864077;29;20219;-69
2023/05/11 13:56:27;;;;;;;1.45;0.30;;;21.00;87.30;;;;;;4870356;29;20065;-70
2023/05/11 13:58:52;;;;;;;1.80;0.57;;;20.90;86.80;;;;;;4869704;29;20034;-70
2023/05/11 14:01:18;;;;;;;0.80;0.30;;;20.70;87.90;;;;;;4870531;29;20037;-69
2023/05/11 14:03:44;;;;;;;1.77;0.50;;;20.90;90.70;;;;;;4870141;29;20056;-71
2023/05/11 14:06:09;;;;;;;1.15;0.43;;;21.20;88.20;;;;;;4870008;29;20227;-72
2023/05/11 14:08:35;;;;;;;1.52;0.45;;;21.00;89.40;;;;;;4870509;29;20033;-71
2023/05/11 14:11:01;;;;;;;1.40;0.30;;;21.50;88.30;;;;;;4865733;29;20109;-72
2023/05/11 14:13:26;;;;;;;2.45;0.50;;;21.60;86.00;;;;;;4870399;29;20033;-71
2023/05/11 14:15:52;;;;;;;1.10;0.30;;;21.70;88.50;;;;;;4869490;29;20029;-71
2023/05/11 14:18:18;;;;;;;1.10;0.32;;;21.70;85.00;;;;;;4870481;29;20076;-72
2023/05/11 14:20:43;;;;;;;1.10;0.35;;;21.60;84.30;;;;;;4869340;29;20029;-71
2023/05/11 14:23:09;;;;;;;1.30;0.40;;;21.90;85.70;;;;;;4869843;29;20029;-71
2023/05/11 14:25:35;;;;;;;2.08;0.50;;;21.70;85.60;;;;;;4869948;29;20033;-71
2023/05/11 14:28:01;;;;;;;1.25;0.45;;;21.60;84.20;;;;;;4869824;29;20229;-69
2023/05/11 14:30:27;;;;;;;0.80;0.30;;;21.50;85.30;;;;;;4870419;29;20121;-69
2023/05/11 14:32:53;;;;;;;0.68;0.30;;;21.40;84.40;;;;;;4869485;29;20033;-69
2023/05/11 14:35:20;;;;;;;2.10;0.30;;;21.70;84.60;;;;;;4870333;29;20040;-70
2023/05/11 14:37:46;;;;;;;1.48;0.30;;;21.50;83.10;;;;;;4869243;29;20037;-70
2023/05/11 14:40:12;;;;;;;1.33;0.32;;;21.20;84.20;;;;;;4870240;29;20070;-69
2023/05/11 14:42:37;;;;;;;0.77;0.30;;;21.10;85.90;;;;;;4884233;29;20030;-70
2023/05/11 14:45:05;;;;;;;3.05;0.40;;;21.20;85.30;;;;;;4869349;29;20274;-70
2023/05/11 14:47:30;;;;;;;0.95;0.30;;;21.40;85.60;;;;;;4870130;29;20383;-69
2023/05/11 14:49:56;;;;;;;1.98;0.57;;;21.70;84.30;;;;;;4869744;29;20092;-69
2023/05/11 14:52:22;;;;;;;1.30;0.40;;;21.90;83.50;;;;;;4869920;29;20219;-70
2023/05/11 14:54:48;;;;;;;2.08;0.30;;;22.10;82.00;;;;;;4869282;29;20041;-70
2023/05/11 14:57:14;;;;;;;1.77;0.40;;;22.10;81.80;;;;;;4869494;29;20064;-70
2023/05/11 14:59:40;;;;;;;1.13;0.40;;;22.10;81.50;;;;;;4870085;29;20029;-71
2023/05/11 15:02:06;;;;;;;3.10;0.45;;;22.20;81.30;;;;;;4869265;29;20058;-70
2023/05/11 15:04:32;;;;;;;0.80;0.20;;;21.90;80.90;;;;;;4869781;29;20037;-69
2023/05/11 15:06:58;;;;;;;2.10;0.50;;;22.20;80.90;;;;;;4869251;29;20038;-70
2023/05/11 15:09:24;;;;;;;1.80;0.50;;;22.60;79.90;;;;;;4871125;29;20032;-69
2023/05/11 15:11:50;;;;;;;1.05;0.30;;;22.80;79.90;;;;;;4869198;29;20086;-68
2023/05/11 15:14:16;;;;;;;2.47;0.40;;;22.90;80.30;;;;;;4873404;29;20077;-69
2023/05/11 15:16:41;;;;;;;1.08;0.40;;;23.30;78.20;;;;;;4872957;29;20217;-74
2023/05/11 15:19:07;;;;;;;1.25;0.50;;;23.30;77.50;;;;;;4872680;29;20096;-70
2023/05/11 15:21:33;;;;;;;1.20;0.30;;;22.90;79.30;;;;;;4872976;29;20045;-70
2023/05/11 15:23:58;;;;;;;1.25;0.30;;;22.70;79.40;;;;;;4872758;29;20240;-70
2023/05/11 15:26:24;;;;;;;1.80;0.40;;;22.50;78.60;;;;;;4872680;29;20045;-71
2023/05/11 15:28:50;;;;;;;2.38;0.55;;;22.40;80.70;;;;;;4872352;29;20326;-70
2023/05/11 15:31:16;;;;;;;3.65;1.13;;;22.40;78.50;;;;;;4872813;29;20068;-69
2023/05/11 15:33:42;;;;;;;2.05;0.60;;;22.10;78.50;;;;;;4873016;29;20049;-68
2023/05/11 15:36:12;;;;;;;3.70;0.60;;;22.00;78.90;;;;;;4872270;29;20038;-68
2023/05/11 15:38:39;;;;;;;1.38;0.40;;;21.70;79.50;;;;;;4872785;29;20029;-70
2023/05/11 15:41:04;;;;;;;1.50;0.32;;;21.40;80.40;;;;;;4872443;29;20041;-67
2023/05/11 15:43:30;;;;;;;1.15;0.40;;;21.30;83.60;;;;;;4872542;29;20041;-73
2023/05/11 15:45:56;;;;;;;0.90;0.30;;;21.20;80.70;;;;;;4872151;29;20084;-69
2023/05/11 15:48:22;;;;;;;1.52;0.40;;;20.90;81.70;;;;;;4872319;29;20085;-70
2023/05/11 15:50:48;;;;;;;3.45;0.50;;;20.70;81.80;;;;;;4872109;29;20041;-68
2023/05/11 15:53:13;;;;;;;1.00;0.40;;;20.50;82.30;;;;;;4872381;29;20030;-70
2023/05/11 15:55:44;;;;;;;1.27;0.40;;;20.30;82.40;;;;;;4872445;29;20040;-69
2023/05/11 15:58:10;;;;;;;2.42;0.80;;;20.20;81.60;;;;;;4872300;29;20227;-69
2023/05/11 16:00:37;;;;;;;1.95;0.50;;;20.10;82.60;;;;;;4872352;29;20037;-69
2023/05/11 16:03:03;;;;;;;1.08;0.47;;;20.00;84.10;;;;;;4871500;29;20229;-70
2023/05/11 16:05:29;;;;;;;1.38;0.40;;;20.30;82.80;;;;;;4872140;29;20256;-69
2023/05/11 16:07:55;;;;;;;1.83;0.47;;;20.40;82.80;;;;;;4871211;29;20044;-70
2023/05/11 16:10:20;;;;;;;1.73;0.80;;;20.20;84.30;;;;;;4869669;29;20319;-70
2023/05/11 16:12:46;;;;;;;1.63;0.55;;;20.10;85.60;;;;;;4868222;29;20128;-69
2023/05/11 16:15:12;;;;;;;2.15;0.80;;;19.80;86.60;;;;;;4871597;29;20029;-69
2023/05/11 16:17:38;;;;;;;2.33;0.70;;;19.40;87.50;;;;;;4869563;29;20303;-69
2023/05/11 16:20:04;;;;;;;2.65;0.82;;;19.00;88.50;;;;;;4869634;29;20033;-69
2023/05/11 16:22:30;;;;;;;1.67;0.77;;;18.90;90.00;;;;;;4870690;29;20029;-69
2023/05/11 16:24:56;;;;;;;2.08;0.70;;;18.80;88.80;;;;;;4863975;29;20097;-69
2023/05/11 16:27:22;;;;;;;1.95;0.57;;;18.80;90.10;;;;;;4858091;29;20049;-69
2023/05/11 16:29:48;;;;;;;2.50;0.88;;;18.70;88.00;;;;;;4867099;29;20034;-70
2023/05/11 16:32:13;;;;;;;2.95;0.93;;;18.30;90.30;;;;;;4876396;29;20033;-71
2023/05/11 16:34:41;;;;;;;1.60;0.60;;;18.20;90.00;;;;;;4866909;29;20026;-69
2023/05/11 16:37:06;;;;;;;1.25;0.70;;;18.10;90.10;;;;;;4862934;29;20040;-69
2023/05/11 16:39:32;;;;;;;1.60;0.68;;;18.00;90.50;;;;;;4871345;29;20021;-69
2023/05/11 16:41:58;;;;;;;2.15;0.82;;;17.90;91.00;;;;;;4870721;29;20029;-69
2023/05/11 16:44:24;;;;;;;2.75;0.68;;;17.90;91.00;;;;;;4871354;29;20105;-70
2023/05/11 16:46:49;;;;;;;3.67;1.00;;;17.70;91.10;;;;;;4871176;29;20044;-70
2023/05/11 16:49:15;;;;;;;2.13;0.70;;;17.60;91.60;;;;;;4871302;29;20057;-69
2023/05/11 16:51:42;;;;;;;2.00;0.98;;;17.40;91.40;;;;;;4871127;29;20022;-69
2023/05/11 16:54:09;;;;;;;5.35;1.58;;;17.40;91.30;;;;;;4870429;29;20049;-70
2023/05/11 16:56:35;;;;;;;4.40;1.23;;;17.20;91.40;;;;;;4871301;29;20041;-69
2023/05/11 16:59:01;;;;;;;2.88;1.05;;;17.00;91.60;;;;;;4870327;29;20041;-69
2023/05/11 17:01:27;;;;;;;2.35;1.13;;;16.80;91.90;;;;;;4857189;29;20082;-70
2023/05/11 17:03:53;;;;;;;4.00;1.20;;;16.80;92.80;;;;;;4870301;29;20219;-70
2023/05/11 17:06:21;;;;;;;3.20;1.30;;;16.70;92.70;;;;;;4870931;29;20037;-70
2023/05/11 17:08:47;;;;;;;3.08;1.48;;;16.70;92.90;;;;;;4870831;29;20040;-70
2023/05/11 17:11:13;;;;;;;2.92;1.10;;;16.60;93.00;;;;;;4869677;29;20029;-69
2023/05/11 17:13:39;;;;;;;2.58;1.00;;;16.60;93.30;;;;;;4870730;29;20343;-71
2023/05/11 17:16:04;;;;;;;3.80;1.23;;;16.60;93.20;;;;;;4870081;29;20037;-69
2023/05/11 17:18:31;;;;;;;2.15;1.10;;;16.50;93.50;;;;;;4870814;29;20041;-71
2023/05/11 17:20:56;;;;;;;3.60;1.10;;;16.40;93.90;;;;;;4870311;29;20081;-69
2023/05/11 17:23:23;;;;;;;1.33;0.80;;;16.30;94.20;;;;;;4870258;29;20265;-69
2023/05/11 17:25:50;;;;;;;2.65;1.02;;;16.30;94.60;;;;;;4870543;29;20086;-70
2023/05/11 17:28:16;;;;;;;2.83;0.93;;;16.40;94.90;;;;;;4870154;29;20116;-70
2023/05/11 17:30:43;;;;;;;2.50;0.73;;;16.30;95.00;;;;;;4884307;29;20033;-71
2023/05/11 17:33:08;;;;;;;3.67;0.80;;;16.30;95.10;;;;;;4870049;29;20053;-69
2023/05/11 17:35:34;;;;;;;2.22;0.52;;;16.10;94.60;;;;;;4870584;29;20272;-70
2023/05/11 17:38:01;;;;;;;2.10;0.80;;;16.00;95.30;;;;;;4884154;29;20223;-70
2023/05/11 17:40:27;;;;;;;2.90;0.88;;;15.90;95.20;;;;;;4870589;29;20033;-70
2023/05/11 17:42:53;;;;;;;1.67;0.80;;;15.80;95.30;;;;;;4869960;29;20223;-71
2023/05/11 17:45:18;;;;;;;3.53;0.93;;;15.70;95.30;;;;;;4870355;29;20292;-70
2023/05/11 17:47:48;;;;;;;2.00;1.02;;;15.60;95.60;;;;;;4869985;29;20122;-69
2023/05/11 17:50:13;;;;;;;2.90;1.00;;;15.60;95.80;;;;;;4869737;29;20033;-70